Time;durP1;ratioP1;P1;durP2;ratioP2;P2;SDS_P1;SDS_P2;PMS_P1;PMS_P2;Temp;Humidity;BMP_temperature;BMP_pressure;BME280_temperature;BME280_humidity;BME280_pressure;Samples;Min_cycle;Max_cycle;Signal;HPM_P1;HPM_P2
2022/11/01 00:06:09;;;;;;;27.35;16.70;;;;;;;12.16;100.00;100278.88;21018439;28;20501;-78
2022/11/01 00:16:10;;;;;;;26.42;17.60;;;;;;;12.22;100.00;100299.75;21006296;28;20094;-78
2022/11/01 00:26:11;;;;;;;28.50;16.88;;;;;;;12.31;100.00;100283.75;21009872;28;20049;-78
2022/11/01 00:36:13;;;;;;;26.70;15.88;;;;;;;12.31;100.00;100273.25;21005939;28;20040;-78
2022/11/01 00:46:14;;;;;;;25.63;14.07;;;;;;;12.26;100.00;100260.28;21009249;28;20106;-78
2022/11/01 00:56:15;;;;;;;26.75;15.68;;;;;;;12.24;100.00;100256.81;21011995;28;20493;-78
2022/11/01 01:06:17;;;;;;;27.98;15.85;;;;;;;12.23;100.00;100272.59;21013177;28;20458;-78
2022/11/01 01:16:18;;;;;;;26.48;14.63;;;;;;;12.23;100.00;100247.22;21014143;28;20045;-78
2022/11/01 01:26:20;;;;;;;26.27;14.88;;;;;;;12.26;100.00;100238.38;21006033;28;20045;-78
2022/11/01 01:36:21;;;;;;;24.58;15.93;;;;;;;12.33;100.00;100237.34;21004484;22;20057;-74
2022/11/01 01:46:22;;;;;;;27.17;16.70;;;;;;;12.32;100.00;100243.50;20988577;28;20488;-75
2022/11/01 01:56:24;;;;;;;26.33;15.57;;;;;;;12.42;100.00;100245.00;20987283;28;20044;-76
2022/11/01 02:06:25;;;;;;;25.35;16.88;;;;;;;12.48;100.00;100252.69;20984983;28;20582;-76
2022/11/01 02:16:27;;;;;;;23.83;14.98;;;;;;;12.53;100.00;100255.22;20986051;28;20048;-76
2022/11/01 02:26:28;;;;;;;29.42;15.50;;;;;;;12.55;100.00;100314.69;20985267;28;20052;-75
2022/11/01 02:36:29;;;;;;;30.33;16.73;;;;;;;12.58;100.00;100318.97;20983964;28;20052;-74
2022/11/01 02:56:51;;;;;;;23.08;14.95;;;;;;;12.63;100.00;100276.84;20899772;28;20546;-73
2022/11/01 03:06:52;;;;;;;30.67;17.63;;;;;;;12.69;100.00;100285.41;20899882;28;20071;-72
2022/11/01 03:16:54;;;;;;;29.23;16.92;;;;;;;12.69;100.00;100295.06;20900750;28;20053;-72
2022/11/01 03:26:55;;;;;;;32.38;17.20;;;;;;;12.70;100.00;100291.56;20900076;28;20057;-73
2022/11/01 03:36:56;;;;;;;32.15;18.98;;;;;;;12.76;100.00;100307.16;20898479;28;20052;-72
2022/11/01 03:46:58;;;;;;;36.15;19.63;;;;;;;12.87;100.00;100331.38;20978351;28;20060;-73
2022/11/01 03:56:59;;;;;;;36.22;18.88;;;;;;;12.98;100.00;100342.47;20979275;28;20101;-72
2022/11/01 04:07:00;;;;;;;33.58;17.38;;;;;;;13.04;100.00;100378.25;20979942;28;20049;-72
2022/11/01 04:27:22;;;;;;;29.90;15.43;;;;;;;13.29;100.00;100383.75;20982475;28;20055;-73
2022/11/01 04:37:23;;;;;;;27.08;15.07;;;;;;;13.23;100.00;100392.66;20993071;28;20072;-74
2022/11/01 04:47:24;;;;;;;25.38;15.00;;;;;;;13.22;100.00;100400.56;20992711;28;20373;-73
2022/11/01 04:57:26;;;;;;;24.83;13.55;;;;;;;13.18;100.00;100393.66;20990879;28;20420;-73
2022/11/01 05:07:27;;;;;;;28.58;13.68;;;;;;;13.17;100.00;100392.78;20991240;28;20041;-73
2022/11/01 05:17:29;;;;;;;25.13;12.65;;;;;;;13.13;100.00;100396.41;20990810;28;20182;-73
2022/11/01 05:27:30;;;;;;;19.38;10.88;;;;;;;13.18;100.00;100394.53;20990242;28;20664;-73
2022/11/01 05:37:31;;;;;;;21.08;9.65;;;;;;;13.31;100.00;100406.44;20985120;28;20056;-72
2022/11/01 05:47:33;;;;;;;19.55;9.18;;;;;;;13.38;100.00;100416.81;20906138;28;20436;-72
2022/11/01 05:57:34;;;;;;;14.88;7.15;;;;;;;13.49;100.00;100444.53;20903338;28;20061;-72
2022/11/01 06:07:36;;;;;;;18.23;6.47;;;;;;;13.57;100.00;100449.63;20903370;28;20075;-73
2022/11/01 06:17:37;;;;;;;9.25;5.70;;;;;;;13.53;100.00;100451.47;20903034;28;20048;-73
2022/11/01 06:27:38;;;;;;;10.18;4.90;;;;;;;13.66;100.00;100459.03;20902998;28;20057;-73
2022/11/01 06:37:40;;;;;;;11.55;4.63;;;;;;;13.68;100.00;100484.38;20903536;28;20087;-74
2022/11/01 06:47:41;;;;;;;7.75;3.95;;;;;;;13.69;100.00;100515.03;21010438;28;20048;-73
2022/11/01 06:57:42;;;;;;;10.50;5.28;;;;;;;13.68;100.00;100529.09;21065219;28;20588;-74
2022/11/01 07:07:44;;;;;;;12.82;4.25;;;;;;;13.72;100.00;100545.69;21066164;28;20044;-74
2022/11/01 07:17:46;;;;;;;9.18;3.97;;;;;;;13.76;100.00;100553.47;21009790;28;20053;-75
2022/11/01 07:27:48;;;;;;;7.95;4.00;;;;;;;13.86;100.00;100567.25;20981364;28;20056;-75
2022/11/01 07:37:49;;;;;;;6.75;3.78;;;;;;;14.00;100.00;100575.63;20976318;28;20045;-76
2022/11/01 07:47:51;;;;;;;9.20;3.58;;;;;;;14.14;100.00;100583.16;20897208;28;20091;-76
2022/11/01 07:57:52;;;;;;;8.27;4.05;;;;;;;14.40;100.00;100595.59;20896052;28;20044;-76
2022/11/01 08:07:53;;;;;;;7.70;3.65;;;;;;;14.53;100.00;100597.00;20912618;28;20255;-76
2022/11/01 08:17:55;;;;;;;8.98;3.80;;;;;;;14.79;100.00;100608.56;20912703;28;20045;-76
2022/11/01 08:27:57;;;;;;;7.78;2.88;;;;;;;14.89;100.00;100610.00;20920166;28;20106;-77
2022/11/01 08:37:58;;;;;;;7.28;2.63;;;;;;;14.97;100.00;100620.31;21031616;28;20041;-76
2022/11/01 08:48:00;;;;;;;4.88;2.40;;;;;;;15.15;100.00;100622.41;20994135;28;20056;-74
2022/11/01 08:58:01;;;;;;;7.43;2.90;;;;;;;15.27;100.00;100627.28;20991384;28;20056;-73
2022/11/01 09:08:03;;;;;;;5.75;2.10;;;;;;;15.55;100.00;100645.75;20990727;28;20076;-74
2022/11/01 09:18:05;;;;;;;5.57;1.90;;;;;;;15.43;100.00;100669.00;20990097;28;20455;-75
2022/11/01 09:28:06;;;;;;;6.30;1.52;;;;;;;14.65;100.00;100673.97;20990259;28;20110;-76
2022/11/01 09:38:07;;;;;;;7.85;1.90;;;;;;;14.51;100.00;100672.59;20982136;28;20069;-75
2022/11/01 09:48:09;;;;;;;6.60;2.63;;;;;;;14.85;100.00;100666.34;20906492;28;20456;-74
2022/11/01 09:58:10;;;;;;;8.00;2.30;;;;;;;15.03;100.00;100689.56;20903111;28;20481;-72
2022/11/01 10:08:11;;;;;;;11.05;3.22;;;;;;;15.32;100.00;100687.81;20901411;28;20080;-71
2022/11/01 10:18:13;;;;;;;9.13;1.63;;;;;;;15.34;100.00;100692.16;21003157;28;20086;-69
2022/11/01 10:28:14;;;;;;;8.48;1.90;;;;;;;15.44;100.00;100707.69;20994100;28;20102;-73
2022/11/01 10:38:16;;;;;;;7.35;1.60;;;;;;;15.25;100.00;100710.91;20982042;28;20394;-73
2022/11/01 10:48:37;;;;;;;6.20;1.30;;;;;;;15.19;100.00;100712.81;20981892;28;20084;-73
2022/11/01 10:58:39;;;;;;;5.82;1.25;;;;;;;15.24;100.00;100701.25;20981599;28;20091;-74
2022/11/01 11:08:40;;;;;;;8.55;1.65;;;;;;;15.49;100.00;100700.50;20981319;28;20106;-74
2022/11/01 11:18:42;;;;;;;6.68;1.50;;;;;;;15.47;100.00;100710.22;20981699;28;20045;-74
2022/11/01 11:28:44;;;;;;;6.07;1.35;;;;;;;15.72;100.00;100713.88;20981193;28;20519;-74
2022/11/01 11:38:46;;;;;;;7.13;1.50;;;;;;;15.76;100.00;100694.38;20977303;28;20077;-72
2022/11/01 11:48:48;;;;;;;8.07;1.48;;;;;;;15.93;100.00;100707.03;20914601;28;20053;-72
2022/11/01 11:58:51;;;;;;;10.15;1.70;;;;;;;15.94;100.00;100711.38;20913359;28;20535;-72
2022/11/01 12:08:52;;;;;;;6.95;1.75;;;;;;;15.90;100.00;100709.75;20912756;28;20424;-72
2022/11/01 12:18:53;;;;;;;9.38;1.30;;;;;;;16.10;100.00;100702.06;20912635;28;20045;-72
2022/11/01 12:28:55;;;;;;;9.15;1.77;;;;;;;16.07;100.00;100702.16;20912705;28;20365;-72
2022/11/01 12:38:56;;;;;;;3.80;0.90;;;;;;;16.12;100.00;100700.22;20923472;28;20511;-74
2022/11/01 12:48:58;;;;;;;10.15;1.70;;;;;;;16.24;100.00;100692.78;20992708;28;20602;-73
2022/11/01 12:58:59;;;;;;;7.93;1.30;;;;;;;16.16;100.00;100693.06;20990749;28;20504;-73
2022/11/01 13:09:01;;;;;;;5.95;1.38;;;;;;;16.22;100.00;100676.13;20990329;28;20483;-73
2022/11/01 13:19:02;;;;;;;5.78;1.20;;;;;;;16.35;100.00;100685.34;20990781;28;20055;-74
2022/11/01 13:29:03;;;;;;;5.80;1.00;;;;;;;16.33;100.00;100692.47;20991179;28;20469;-72
2022/11/01 13:39:05;;;;;;;6.88;1.35;;;;;;;16.33;100.00;100698.59;20973441;28;20055;-72
2022/11/01 13:49:06;;;;;;;8.85;1.58;;;;;;;16.26;100.00;100688.31;20904694;28;20045;-73
2022/11/01 13:59:07;;;;;;;8.43;1.70;;;;;;;16.30;100.00;100696.09;20904371;28;20103;-72
2022/11/01 14:09:09;;;;;;;10.50;1.35;;;;;;;16.20;100.00;100704.38;20900974;28;20425;-72
2022/11/01 14:19:13;;;;;;;10.32;1.20;;;;;;;16.05;100.00;100700.47;20903850;28;20498;-70
2022/11/01 14:29:21;;;;;;;6.18;1.70;;;;;;;16.00;100.00;100697.09;20903168;28;20413;-71
2022/11/01 14:39:22;;;;;;;9.60;2.05;;;;;;;16.00;100.00;100698.00;20918530;28;20053;-71
2022/11/01 14:49:24;;;;;;;7.63;1.70;;;;;;;15.86;100.00;100695.81;20984050;28;20053;-71
2022/11/01 14:59:25;;;;;;;7.38;1.90;;;;;;;15.65;100.00;100710.53;20954831;28;20041;-70
2022/11/01 15:09:27;;;;;;;10.02;1.63;;;;;;;15.60;100.00;100712.44;20902080;28;20094;-72
2022/11/01 15:19:28;;;;;;;7.38;1.50;;;;;;;15.46;100.00;100706.72;20897829;28;20060;-71
2022/11/01 15:29:30;;;;;;;5.65;1.40;;;;;;;15.07;100.00;100714.94;20930118;28;20048;-71
2022/11/01 15:39:32;;;;;;;8.30;1.90;;;;;;;14.70;100.00;100727.41;20958415;28;20049;-71
2022/11/01 15:49:33;;;;;;;7.38;1.67;;;;;;;14.36;100.00;100742.31;20977674;28;20179;-71
2022/11/01 15:59:34;;;;;;;8.35;1.60;;;;;;;14.16;100.00;100739.34;21059276;28;20143;-72
2022/11/01 16:09:36;;;;;;;7.55;2.50;;;;;;;13.81;100.00;100735.81;21061641;28;20131;-72
2022/11/01 16:19:37;;;;;;;9.68;2.30;;;;;;;13.43;100.00;100752.47;21061174;28;20060;-72
2022/11/01 16:29:39;;;;;;;7.07;2.15;;;;;;;13.12;100.00;100761.84;21001052;28;20063;-72
2022/11/01 16:39:40;;;;;;;7.03;2.72;;;;;;;12.76;100.00;100774.81;20990249;28;20051;-73
2022/11/01 16:49:42;;;;;;;9.10;2.40;;;;;;;12.43;100.00;100782.41;20991253;28;20040;-75
2022/11/01 16:59:43;;;;;;;8.50;2.70;;;;;;;12.16;100.00;100796.00;20987777;28;20057;-72
2022/11/01 17:09:44;;;;;;;11.05;3.40;;;;;;;11.94;100.00;100814.69;20934595;28;20077;-71
2022/11/01 17:19:46;;;;;;;13.00;4.40;;;;;;;11.77;100.00;100821.91;20966438;28;20548;-72
2022/11/01 17:29:47;;;;;;;9.82;4.10;;;;;;;11.59;100.00;100832.63;20921982;28;20060;-72
2022/11/01 17:39:48;;;;;;;13.45;5.70;;;;;;;11.41;100.00;100845.09;20942738;28;20525;-71
2022/11/01 17:49:50;;;;;;;13.90;5.68;;;;;;;11.29;100.00;100842.63;20943871;28;20144;-70
2022/11/01 17:59:51;;;;;;;16.33;6.40;;;;;;;11.08;100.00;100856.84;20895044;28;20527;-71
2022/11/01 18:09:53;;;;;;;15.45;7.10;;;;;;;10.95;100.00;100860.47;20946245;28;20492;-71
2022/11/01 18:19:54;;;;;;;11.88;5.57;;;;;;;10.83;100.00;100857.94;20976906;28;20068;-70
2022/11/01 18:29:55;;;;;;;13.25;4.28;;;;;;;10.65;100.00;100861.63;20975778;28;20048;-71
2022/11/01 18:39:57;;;;;;;15.70;5.63;;;;;;;10.48;100.00;100864.38;20952793;28;20488;-71
2022/11/01 18:50:00;;;;;;;11.23;5.45;;;;;;;10.35;100.00;100854.84;20991424;28;20048;-70
2022/11/01 19:00:02;;;;;;;12.85;6.70;;;;;;;10.15;100.00;100852.34;20914453;28;20053;-71
2022/11/01 19:10:05;;;;;;;29.17;16.05;;;;;;;10.00;100.00;100856.81;21000063;28;20067;-72
2022/11/01 19:20:06;;;;;;;11.25;5.93;;;;;;;9.92;100.00;100858.63;20967647;28;20197;-71
2022/11/01 19:30:08;;;;;;;11.80;5.13;;;;;;;9.82;100.00;100859.56;20970988;28;20390;-72
2022/11/01 19:40:09;;;;;;;13.60;5.05;;;;;;;10.36;100.00;100854.88;20946763;28;20088;-71
2022/11/01 19:50:10;;;;;;;17.50;7.47;;;;;;;10.53;100.00;100859.94;20887432;28;20432;-71
2022/11/01 20:00:12;;;;;;;14.32;6.22;;;;;;;9.88;100.00;100875.19;20896341;28;20088;-71
2022/11/01 20:10:13;;;;;;;10.45;4.07;;;;;;;9.66;100.00;100884.00;20907824;28;20549;-71
2022/11/01 20:20:15;;;;;;;12.93;4.40;;;;;;;9.58;100.00;100891.91;20984987;28;20064;-71
2022/11/01 20:30:16;;;;;;;13.07;4.25;;;;;;;9.45;100.00;100893.69;20983489;28;20063;-71
2022/11/01 20:40:17;;;;;;;12.80;3.60;;;;;;;9.26;100.00;100902.44;20959106;28;20084;-71
2022/11/01 20:50:20;;;;;;;9.65;3.88;;;;;;;9.11;100.00;100913.81;20900507;28;20195;-70
2022/11/01 21:00:23;;;;;;;12.13;4.30;;;;;;;9.03;100.00;100915.53;20911375;28;20123;-71
2022/11/01 21:10:25;;;;;;;11.25;4.10;;;;;;;9.02;100.00;100923.41;20972567;28;20045;-71
2022/11/01 21:20:26;;;;;;;11.80;3.42;;;;;;;9.08;100.00;100923.38;20897612;28;20041;-71
2022/11/01 21:30:27;;;;;;;8.52;2.85;;;;;;;9.05;100.00;100928.59;20897842;28;20103;-71
2022/11/01 21:40:28;;;;;;;7.22;2.58;;;;;;;8.95;100.00;100936.44;20922984;28;20110;-75
2022/11/01 21:50:30;;;;;;;7.40;2.90;;;;;;;8.85;100.00;100937.31;20980979;28;20049;-75
2022/11/01 22:00:31;;;;;;;8.60;3.47;;;;;;;8.72;100.00;100951.25;20979936;28;20056;-78
2022/11/01 22:10:32;;;;;;;13.18;4.78;;;;;;;8.63;100.00;100961.69;20978615;28;20398;-77
2022/11/01 22:20:34;;;;;;;11.30;4.47;;;;;;;8.55;100.00;100950.34;20977599;28;20293;-87
2022/11/01 22:30:35;;;;;;;13.32;3.78;;;;;;;8.47;100.00;100951.19;20976338;28;20056;-77
2022/11/01 22:40:37;;;;;;;8.18;3.00;;;;;;;8.39;100.00;100955.56;20949118;28;20049;-77
2022/11/01 22:50:38;;;;;;;13.50;3.20;;;;;;;8.29;100.00;100961.59;20893069;28;20049;-78
2022/11/01 23:00:39;;;;;;;8.88;3.33;;;;;;;8.15;100.00;100960.69;20903862;28;20078;-75
2022/11/01 23:10:41;;;;;;;11.90;3.67;;;;;;;8.06;100.00;100965.88;20981784;28;20059;-72
2022/11/01 23:20:42;;;;;;;10.57;5.55;;;;;;;7.95;100.00;100956.28;20980466;28;20079;-75
2022/11/01 23:30:44;;;;;;;11.13;4.85;;;;;;;7.86;100.00;100964.06;20987812;28;20541;-76
2022/11/01 23:40:45;;;;;;;14.77;4.97;;;;;;;7.81;100.00;100950.13;21009759;28;20056;-80
2022/11/01 23:50:46;;;;;;;12.25;4.22;;;;;;;7.71;100.00;100950.91;21008952;28;20079;-76
